Archival Weather

NSFA McMurdo Sound

NSFA McMurdo Sound, Antarctica (NZCM)

Report from: Thursday, September 21, 2023 10:55 AM UTC
Current time: Saturday, February 24, 2024 3:17 PM UTC

Current weather – Weather history – Daily summaries
Weather forecast

Present weatherLight snow, mist
Temperature-7.5°C (18.5°F)
Wind chill-19.3°C (-2.8°F)
Dew point-11.2°C (11.8°F)
Winds 34 kts (17.5 m/s, 39.1 mph) South-Southeast (160°)
Wind gusts 41 kts (21.1 m/s, 47.2 mph)
Peak wind 41 kts (21.1 m/s, 47.2 mph) South-Southeast (160°) at 10:54
Visibility1.6 mi. (2.6 km)
Clouds Few clouds 2,400 ft. (732 m)
Ceiling: Broken clouds 5,500 ft. (1,676 m)
Overcast 7,000 ft. (2,134 m)
Altimeter28.55 in.Hg (967 mB)
Precip. events Snow began 10:53 AM
Relative humidity75 %
Density altitude-4,571 ft. (-1,393 m)
Sea-level pressure106.7 kPa (1067 mB, 31.51 in.Hg)
Remarks Fully automated report
Automated weather observing station with precipitation discriminator
Pressure falling rapidly
Flight conditions Instrument Meteorological Conditions
Raw dataNZCM 211055Z AUTO 16034G41KT 2600 -SN BR FEW024 BKN055 OVC070 M07/M11 A2855 RMK AO2 PK WND 16041/1054 WSHFT 1039 SNB1053 PRESFR SLP672 T10751112
An error has occurred. This application may no longer respond until reloaded. Reload 🗙